Time;durP1;ratioP1;P1;durP2;ratioP2;P2;SDS_P1;SDS_P2;PMS_P1;PMS_P2;Temp;Humidity;BMP_temperature;BMP_pressure;BME280_temperature;BME280_humidity;BME280_pressure;Samples;Min_cycle;Max_cycle;Signal;HPM_P1;HPM_P2
2023/03/18 00:01:09;;;;;;;31.00;26.50;;;;;;;2.10;50.04;98060.02;109123;1295;22145;-87
2023/03/18 00:03:37;;;;;;;31.30;24.70;;;;;;;2.08;49.99;98060.58;109104;1295;22196;-86
2023/03/18 00:06:11;;;;;;;36.20;27.60;;;;;;;2.07;50.16;98065.23;108884;1295;22218;-86
2023/03/18 00:08:40;;;;;;;31.70;25.80;;;;;;;2.03;50.11;98060.60;109094;1295;22966;-85
2023/03/18 00:11:10;;;;;;;36.40;26.50;;;;;;;2.02;50.17;98058.70;109091;1295;22300;-89
2023/03/18 00:13:52;;;;;;;29.20;25.60;;;;;;;1.98;50.16;98063.34;109352;1271;22235;-86
2023/03/18 00:16:20;;;;;;;29.90;26.40;;;;;;;1.95;50.34;98059.55;109207;1294;22964;-87
2023/03/18 00:18:48;;;;;;;32.60;26.30;;;;;;;1.93;50.59;98062.48;109189;1294;22200;-86
2023/03/18 00:21:17;;;;;;;30.40;27.10;;;;;;;1.87;50.49;98059.66;109173;1282;22410;-87
2023/03/18 00:23:47;;;;;;;29.30;25.20;;;;;;;1.83;50.71;98059.13;109194;1294;22138;-84
2023/03/18 00:26:16;;;;;;;30.40;23.80;;;;;;;1.80;50.69;98063.00;109171;1294;22186;-84
2023/03/18 00:28:43;;;;;;;32.60;25.40;;;;;;;1.76;50.88;98060.76;109198;1294;22291;-84
2023/03/18 00:31:12;;;;;;;32.10;27.40;;;;;;;1.74;51.06;98068.46;109191;1294;22220;-83
2023/03/18 00:33:44;;;;;;;34.90;28.10;;;;;;;1.69;50.95;98070.17;109180;1282;22239;-84
2023/03/18 00:36:15;;;;;;;34.10;30.40;;;;;;;1.64;51.05;98070.55;109208;1294;22898;-85
2023/03/18 00:38:49;;;;;;;35.10;31.40;;;;;;;1.59;50.95;98066.95;109174;1294;22255;-87
2023/03/18 00:41:17;;;;;;;;;;;;;;;1.54;51.12;98061.70;109375;1294;22430;-86
2023/03/18 00:43:53;;;;;;;32.30;28.80;;;;;;;1.49;51.35;98060.39;109799;1294;22273;-83
2023/03/18 00:46:28;;;;;;;30.20;26.80;;;;;;;1.49;51.35;98056.35;109783;1294;22106;-84
2023/03/18 00:48:58;;;;;;;;;;;;;;;1.48;51.22;98053.99;109783;1294;22408;-84
2023/03/18 00:51:31;;;;;;;31.90;27.40;;;;;;;1.43;51.49;98050.50;109579;1294;22208;-86
2023/03/18 00:54:01;;;;;;;32.40;29.00;;;;;;;1.41;51.41;98045.03;109107;1294;22132;-86
2023/03/18 00:56:54;;;;;;;29.60;26.40;;;;;;;1.37;51.45;98037.17;109146;1294;22140;-85
2023/03/18 00:59:22;;;;;;;28.90;25.40;;;;;;;1.33;51.67;98034.81;109103;1294;22221;-86
2023/03/18 01:01:50;;;;;;;28.20;25.10;;;;;;;1.29;51.71;98032.71;109079;1294;22180;-86
2023/03/18 01:04:20;;;;;;;27.50;24.60;;;;;;;1.24;51.63;98031.23;109198;1294;22238;-85
2023/03/18 01:06:48;;;;;;;25.80;23.10;;;;;;;1.20;51.81;98028.75;109709;1294;22206;-83
2023/03/18 01:09:16;;;;;;;28.00;24.90;;;;;;;1.17;51.76;98025.34;109772;1294;22262;-82
2023/03/18 01:11:44;;;;;;;26.60;22.60;;;;;;;1.16;52.00;98019.55;109713;1294;22178;-85
2023/03/18 01:14:12;;;;;;;26.70;23.10;;;;;;;1.17;52.04;98016.80;109201;1294;22207;-86
2023/03/18 01:16:40;;;;;;;27.00;22.80;;;;;;;1.17;52.01;98013.56;109180;1294;22983;-86
2023/03/18 01:19:08;;;;;;;26.30;23.30;;;;;;;1.17;52.16;98007.55;109172;1294;22622;-84
2023/03/18 01:21:36;;;;;;;25.90;23.10;;;;;;;1.17;52.44;98009.31;109168;1294;22143;-85
2023/03/18 01:24:04;;;;;;;27.00;24.10;;;;;;;1.18;52.25;98004.46;109143;1294;22137;-85
2023/03/18 01:26:33;;;;;;;29.00;23.80;;;;;;;1.20;52.49;98001.30;109158;1294;22161;-83
2023/03/18 01:29:02;;;;;;;29.30;24.20;;;;;;;1.19;52.54;97995.08;109055;1294;23112;-83
2023/03/18 01:31:33;;;;;;;29.50;25.40;;;;;;;1.16;52.49;97991.20;109072;1295;22246;-85
2023/03/18 01:34:05;;;;;;;29.00;23.40;;;;;;;1.16;52.70;97992.41;109072;1294;22156;-84
2023/03/18 01:36:42;;;;;;;28.10;24.70;;;;;;;1.14;52.75;97991.80;109049;1294;22112;-85
2023/03/18 01:39:10;;;;;;;25.50;22.60;;;;;;;1.13;52.68;97994.96;109260;1294;22301;-84
2023/03/18 01:41:39;;;;;;;26.50;22.00;;;;;;;1.12;52.74;97997.88;109121;1294;22203;-86
2023/03/18 01:44:13;;;;;;;22.70;20.30;;;;;;;1.13;53.03;97995.29;109057;1294;22121;-85
2023/03/18 01:46:44;;;;;;;26.60;21.30;;;;;;;1.16;53.58;97993.16;109068;1294;22282;-85
2023/03/18 01:49:28;;;;;;;24.80;21.30;;;;;;;1.20;53.81;97990.59;109085;1294;22223;-85
2023/03/18 01:52:00;;;;;;;23.50;21.10;;;;;;;1.24;53.78;97991.41;109074;1294;22217;-85
2023/03/18 01:54:34;;;;;;;24.30;19.90;;;;;;;1.25;53.90;97996.58;109120;1295;22217;-85
2023/03/18 01:57:02;;;;;;;24.90;22.20;;;;;;;1.26;53.65;97996.11;109106;1294;22212;-84
2023/03/18 01:59:37;;;;;;;22.90;20.60;;;;;;;1.26;53.62;97995.10;109057;1294;22366;-84
2023/03/18 02:02:09;;;;;;;23.80;20.50;;;;;;;1.26;53.53;97994.20;109126;1294;22690;-85
2023/03/18 02:04:44;;;;;;;23.30;20.40;;;;;;;1.25;53.62;97996.73;109158;1294;22208;-86
2023/03/18 02:07:15;;;;;;;26.10;20.30;;;;;;;1.24;53.66;97993.80;109065;1294;22112;-86
2023/03/18 02:09:46;;;;;;;23.10;20.40;;;;;;;1.25;53.68;97995.94;109058;1294;23029;-86
2023/03/18 02:12:21;;;;;;;22.50;19.90;;;;;;;1.25;54.07;97993.08;109004;1294;22151;-85
2023/03/18 02:14:52;;;;;;;23.90;20.70;;;;;;;1.25;53.92;97997.48;108909;1294;22227;-84
2023/03/18 02:17:24;;;;;;;25.00;21.10;;;;;;;1.25;53.93;97991.48;109160;1294;22354;-85
2023/03/18 02:20:21;;;;;;;26.10;20.80;;;;;;;1.23;53.92;97986.63;109054;1294;22984;-83
2023/03/18 02:22:53;;;;;;;21.40;19.10;;;;;;;1.22;54.02;97986.32;108709;1294;22260;-84
2023/03/18 02:25:37;;;;;;;21.90;19.60;;;;;;;1.22;54.08;97986.80;109000;1294;22448;-84
2023/03/18 02:28:13;;;;;;;21.80;19.40;;;;;;;1.22;54.34;97983.84;109162;1294;22259;-84
2023/03/18 02:30:46;;;;;;;21.60;19.20;;;;;;;1.21;54.51;97983.55;109064;1294;22961;-84
2023/03/18 02:33:18;;;;;;;22.70;20.20;;;;;;;1.21;55.10;97982.48;109164;1294;22252;-83
2023/03/18 02:35:51;;;;;;;22.60;20.20;;;;;;;1.20;55.12;97983.79;109126;1294;22212;-84
2023/03/18 02:38:20;;;;;;;22.50;20.10;;;;;;;1.18;54.97;97976.80;108991;1294;22261;-85
2023/03/18 02:40:48;;;;;;;22.20;19.40;;;;;;;1.19;55.11;97978.30;109048;1294;22269;-84
2023/03/18 02:43:28;;;;;;;25.30;21.40;;;;;;;1.18;55.68;97977.61;109166;1294;22163;-84
2023/03/18 02:46:20;;;;;;;23.30;20.20;;;;;;;1.18;55.76;97982.15;109060;1294;22234;-84
2023/03/18 02:48:49;;;;;;;25.50;21.80;;;;;;;1.17;55.79;97978.63;109151;1294;22159;-84
2023/03/18 02:51:17;;;;;;;24.00;21.40;;;;;;;1.14;55.78;97978.64;108928;1294;22224;-85
2023/03/18 02:53:47;;;;;;;23.60;20.60;;;;;;;1.15;55.87;97980.67;109131;1294;22205;-85
2023/03/18 02:56:16;;;;;;;26.50;22.90;;;;;;;1.15;55.67;97980.88;109054;1294;22178;-84
2023/03/18 02:58:45;;;;;;;25.70;21.80;;;;;;;1.15;55.88;97976.91;109181;1294;22210;-84
2023/03/18 03:01:14;;;;;;;23.90;21.20;;;;;;;1.14;56.42;97974.27;109062;1294;22239;-85
2023/03/18 03:03:42;;;;;;;24.30;21.20;;;;;;;1.12;56.25;97968.46;109140;1294;22187;-87
2023/03/18 03:06:11;;;;;;;25.70;21.00;;;;;;;1.10;56.16;97964.98;108962;1294;22937;-87
2023/03/18 03:08:40;;;;;;;22.40;20.00;;;;;;;1.10;56.15;97964.39;109166;1294;22706;-86
2023/03/18 03:11:09;;;;;;;22.20;19.90;;;;;;;1.10;56.21;97961.36;109072;1294;22273;-84
2023/03/18 03:13:44;;;;;;;24.10;21.20;;;;;;;1.09;55.84;97966.13;109312;1294;22153;-85
2023/03/18 03:16:14;;;;;;;22.40;19.50;;;;;;;1.08;55.73;97964.40;109477;1294;22196;-85
2023/03/18 03:18:43;;;;;;;24.80;20.80;;;;;;;1.07;55.84;97965.54;109112;1294;22241;-85
2023/03/18 03:21:12;;;;;;;22.70;18.50;;;;;;;1.06;56.11;97959.77;109114;1294;22247;-85
2023/03/18 03:23:43;;;;;;;25.10;19.10;;;;;;;1.06;55.97;97965.45;109030;1294;22158;-85
2023/03/18 03:26:15;;;;;;;21.90;19.50;;;;;;;1.07;56.15;97969.31;109131;1294;22252;-86
2023/03/18 03:28:43;;;;;;;24.70;20.40;;;;;;;1.08;56.37;97965.89;109140;1294;22914;-86
2023/03/18 03:31:11;;;;;;;22.00;19.70;;;;;;;1.09;56.12;97970.09;109055;1294;22279;-84
2023/03/18 03:33:40;;;;;;;22.90;18.30;;;;;;;1.07;55.93;97974.58;109105;1294;22117;-84
2023/03/18 03:36:13;;;;;;;24.40;19.40;;;;;;;1.05;55.82;97976.61;109144;1294;22845;-86
2023/03/18 03:38:42;;;;;;;23.30;19.90;;;;;;;1.03;56.05;97981.96;109123;1294;22190;-85
2023/03/18 03:41:11;;;;;;;21.50;19.10;;;;;;;1.02;55.78;97983.38;109157;1294;22864;-86
2023/03/18 03:43:40;;;;;;;23.40;21.00;;;;;;;1.00;55.71;97981.38;109113;1294;22332;-86
2023/03/18 03:46:09;;;;;;;25.90;21.00;;;;;;;0.97;55.58;97982.21;108869;1294;22212;-85
2023/03/18 03:48:38;;;;;;;23.90;21.50;;;;;;;0.91;55.71;97982.84;108818;1294;22272;-86
2023/03/18 03:51:10;;;;;;;22.80;20.30;;;;;;;0.89;55.70;97982.69;109174;1294;22674;-84
2023/03/18 03:53:39;;;;;;;24.10;21.50;;;;;;;0.85;55.71;97985.59;109058;1294;22221;-85
2023/03/18 03:56:08;;;;;;;23.70;20.80;;;;;;;0.80;55.81;97990.58;109070;1294;22212;-85
2023/03/18 03:58:36;;;;;;;25.80;21.30;;;;;;;0.75;55.78;97988.71;109060;1294;22183;-85
2023/03/18 04:01:05;;;;;;;26.00;23.20;;;;;;;0.72;55.68;97986.15;109166;1294;23108;-85
2023/03/18 04:03:33;;;;;;;27.70;24.70;;;;;;;0.66;55.81;97985.29;109071;1294;22134;-86
2023/03/18 04:06:04;;;;;;;23.60;20.90;;;;;;;0.58;55.68;97987.34;109184;1294;22259;-86
2023/03/18 04:08:32;;;;;;;25.30;22.40;;;;;;;0.54;55.98;97991.39;109003;1290;22303;-84
2023/03/18 04:11:02;;;;;;;23.00;20.70;;;;;;;0.48;56.07;97987.77;109173;1294;22251;-84
2023/03/18 04:13:30;;;;;;;24.30;21.80;;;;;;;0.43;56.06;97986.81;109066;1294;22269;-85
2023/03/18 04:15:58;;;;;;;23.60;21.10;;;;;;;0.37;56.04;97983.92;109124;1294;22240;-86
2023/03/18 04:18:27;;;;;;;25.50;22.80;;;;;;;0.32;55.98;97984.64;109140;1294;22253;-85
2023/03/18 04:20:55;;;;;;;25.20;21.90;;;;;;;0.23;55.91;97985.55;109057;1294;22199;-84
2023/03/18 04:23:36;;;;;;;26.40;22.70;;;;;;;0.17;55.99;97987.96;109117;1294;22401;-84
2023/03/18 04:26:04;;;;;;;24.40;21.30;;;;;;;0.13;56.18;97989.02;109172;1294;22297;-85
2023/03/18 04:28:32;;;;;;;23.30;19.80;;;;;;;0.09;56.26;97994.05;109152;1294;22808;-85
2023/03/18 04:31:01;;;;;;;24.00;21.60;;;;;;;0.02;56.24;97991.64;109033;1294;22138;-84
2023/03/18 04:33:29;;;;;;;22.90;20.40;;;;;;;-0.06;56.40;97994.05;109055;1294;22220;-83
2023/03/18 04:35:57;;;;;;;22.10;19.00;;;;;;;-0.11;56.58;97999.15;109113;1294;22127;-84
2023/03/18 04:38:27;;;;;;;23.00;20.60;;;;;;;-0.17;56.77;98001.19;109048;1294;22208;-83
2023/03/18 04:40:55;;;;;;;27.60;24.90;;;;;;;-0.21;56.48;98001.97;109124;1294;22231;-85
2023/03/18 04:43:23;;;;;;;30.70;27.50;;;;;;;-0.26;56.71;98001.32;109031;1294;23000;-84
2023/03/18 04:45:51;;;;;;;29.20;26.20;;;;;;;-0.29;56.83;98005.69;109037;1294;22199;-84
2023/03/18 04:48:20;;;;;;;29.50;26.30;;;;;;;-0.34;56.79;98003.39;109043;1294;22234;-85
2023/03/18 04:50:48;;;;;;;30.80;27.70;;;;;;;-0.38;56.76;98005.09;109099;1294;22888;-84
2023/03/18 04:53:21;;;;;;;33.50;30.20;;;;;;;-0.44;56.95;98002.39;109165;1294;22243;-84
2023/03/18 04:55:50;;;;;;;41.60;37.60;;;;;;;-0.49;57.11;98005.20;109154;1294;22284;-84
2023/03/18 04:58:20;;;;;;;38.20;34.40;;;;;;;-0.55;57.02;98002.21;109131;1294;22290;-84
2023/03/18 05:01:03;;;;;;;33.10;29.90;;;;;;;-0.55;57.04;97998.88;109101;1294;22232;-89
2023/03/18 05:03:35;;;;;;;42.70;38.60;;;;;;;-0.53;57.15;97998.61;109173;1292;22288;-89
2023/03/18 05:06:05;;;;;;;41.30;37.00;;;;;;;-0.49;57.43;97998.95;109092;1282;22281;-86
2023/03/18 05:08:42;;;;;;;28.00;24.80;;;;;;;-0.41;57.80;97993.14;109424;1294;22152;-88
2023/03/18 05:11:10;;;;;;;24.80;21.40;;;;;;;-0.29;58.19;98002.30;109404;1294;22288;-91
2023/03/18 05:13:39;;;;;;;26.60;23.40;;;;;;;-0.22;58.17;98002.48;109646;1294;22148;-94
2023/03/18 05:16:08;;;;;;;30.70;27.40;;;;;;;-0.17;58.25;98006.90;109752;1270;21966;-84
2023/03/18 05:18:37;;;;;;;31.80;28.50;;;;;;;-0.14;58.30;98006.65;109779;1294;22123;-93
2023/03/18 05:21:07;;;;;;;30.90;27.40;;;;;;;-0.12;58.24;98013.22;109551;1294;22230;-91
2023/03/18 05:23:36;;;;;;;29.30;26.30;;;;;;;-0.10;58.18;98015.06;109160;1294;22215;-89
2023/03/18 05:26:04;;;;;;;36.10;28.90;;;;;;;-0.07;58.45;98017.46;109181;1294;22347;-92
2023/03/18 05:28:33;;;;;;;33.20;29.40;;;;;;;-0.04;58.27;98019.24;109170;1294;22233;-89
2023/03/18 05:31:10;;;;;;;31.40;28.10;;;;;;;-0.04;58.22;98017.08;109104;1294;22251;-87
2023/03/18 05:33:41;;;;;;;32.70;29.50;;;;;;;-0.02;58.33;98019.30;109159;1294;22826;-87
2023/03/18 05:36:10;;;;;;;30.60;27.20;;;;;;;-0.02;58.45;98021.90;109234;1294;22236;-89
2023/03/18 05:38:47;;;;;;;31.70;28.30;;;;;;;0.03;58.59;98021.10;109212;1290;22264;-90
2023/03/18 05:41:15;;;;;;;32.50;29.00;;;;;;;0.04;58.55;98021.09;109223;1294;22253;-90
2023/03/18 05:43:43;;;;;;;29.10;25.90;;;;;;;0.08;58.68;98017.59;109214;1294;22232;-89
2023/03/18 05:46:12;;;;;;;26.70;22.50;;;;;;;0.13;58.88;98011.92;109206;1294;22663;-89
2023/03/18 05:48:58;;;;;;;24.20;20.50;;;;;;;0.17;58.75;98013.83;109157;1294;22218;-89
2023/03/18 05:51:30;;;;;;;22.50;19.80;;;;;;;0.29;58.93;98019.58;109161;1294;22254;-90
2023/03/18 05:53:59;;;;;;;29.00;22.80;;;;;;;0.39;58.81;98021.29;109201;1294;22218;-87
2023/03/18 05:56:31;;;;;;;25.20;20.70;;;;;;;0.56;59.08;98023.57;109189;1294;22201;-88
2023/03/18 05:59:02;;;;;;;23.70;21.20;;;;;;;0.72;59.00;98021.77;109259;1294;22249;-86
2023/03/18 06:01:40;;;;;;;25.70;22.10;;;;;;;0.89;58.95;98021.91;109231;1294;22301;-88
2023/03/18 06:04:09;;;;;;;24.00;20.40;;;;;;;1.05;58.80;98024.84;109442;1294;22142;-89
2023/03/18 06:06:39;;;;;;;23.20;20.10;;;;;;;1.21;58.84;98024.64;109521;1294;22213;-89
2023/03/18 06:09:09;;;;;;;23.80;21.30;;;;;;;1.39;58.83;98028.69;109340;1294;22234;-90
2023/03/18 06:11:39;;;;;;;23.10;20.60;;;;;;;1.56;58.71;98023.88;109476;1294;22138;-88
2023/03/18 06:14:07;;;;;;;22.90;19.10;;;;;;;1.73;58.72;98021.78;109387;1294;22961;-88
2023/03/18 06:16:36;;;;;;;26.00;20.60;;;;;;;1.88;58.76;98023.98;109142;1294;22325;-87
2023/03/18 06:19:04;;;;;;;27.00;21.30;;;;;;;2.03;58.65;98025.98;109248;1292;22881;-90
2023/03/18 06:21:33;;;;;;;27.20;22.30;;;;;;;2.17;58.69;98026.86;109261;1294;22263;-89
2023/03/18 06:24:06;;;;;;;24.40;21.50;;;;;;;2.33;58.56;98030.83;109206;1294;22168;-90
2023/03/18 06:26:34;;;;;;;25.30;20.10;;;;;;;2.47;58.79;98029.34;109198;1294;22210;-88
2023/03/18 06:29:04;;;;;;;25.20;19.40;;;;;;;2.61;58.49;98028.53;109208;1294;22241;-89
2023/03/18 06:31:33;;;;;;;22.40;19.80;;;;;;;2.74;58.56;98030.86;109210;1294;22252;-89
2023/03/18 06:34:03;;;;;;;25.70;20.30;;;;;;;2.86;58.61;98029.06;109134;1294;22680;-87
2023/03/18 06:36:35;;;;;;;27.60;24.60;;;;;;;3.00;58.44;98031.73;109206;1294;22287;-91
2023/03/18 06:39:05;;;;;;;29.20;24.80;;;;;;;3.13;58.11;98036.33;109397;1294;22296;-87
2023/03/18 06:41:34;;;;;;;28.00;23.90;;;;;;;3.24;58.29;98041.47;109216;1294;22224;-90
2023/03/18 06:44:18;;;;;;;33.00;29.00;;;;;;;3.36;58.01;98042.41;109354;1294;22208;-93
2023/03/18 06:46:46;;;;;;;32.60;26.00;;;;;;;3.42;58.18;98042.08;109407;1294;22218;-89
2023/03/18 06:49:15;;;;;;;38.40;27.40;;;;;;;3.49;57.70;98044.02;109280;1294;23124;-88
2023/03/18 06:51:48;;;;;;;28.00;23.90;;;;;;;3.58;57.72;98046.15;109158;1289;22125;-85
2023/03/18 06:54:17;;;;;;;28.00;24.00;;;;;;;3.67;57.30;98047.73;109184;1294;22226;-84
2023/03/18 06:56:45;;;;;;;24.70;20.70;;;;;;;3.74;57.49;98046.80;109168;1294;22122;-84
2023/03/18 06:59:18;;;;;;;26.00;21.70;;;;;;;3.83;57.05;98048.59;109158;1294;22216;-84
2023/03/18 07:01:48;;;;;;;30.00;22.60;;;;;;;3.91;56.79;98048.03;109166;1294;22220;-83
2023/03/18 07:04:19;;;;;;;26.10;21.90;;;;;;;3.98;56.81;98052.48;109135;1294;22175;-84
2023/03/18 07:06:47;;;;;;;25.00;21.20;;;;;;;4.05;56.50;98051.11;109159;1294;22272;-87
2023/03/18 07:09:17;;;;;;;25.40;22.20;;;;;;;4.14;56.42;98056.63;109127;1294;22269;-88
2023/03/18 07:11:50;;;;;;;30.90;23.70;;;;;;;4.27;56.48;98062.92;108973;1294;22029;-86
2023/03/18 07:14:20;;;;;;;25.40;21.40;;;;;;;4.40;56.15;98066.48;109157;1294;22155;-85
2023/03/18 07:16:48;;;;;;;23.80;19.70;;;;;;;4.52;56.11;98069.11;109118;1294;22215;-84
2023/03/18 07:19:17;;;;;;;24.20;19.50;;;;;;;4.67;56.18;98071.23;109123;1294;22220;-85
2023/03/18 07:21:46;;;;;;;23.50;20.90;;;;;;;4.83;55.79;98071.69;109110;1294;22692;-85
2023/03/18 07:24:16;;;;;;;22.80;20.30;;;;;;;4.96;55.54;98072.09;109118;1294;22289;-83
2023/03/18 07:26:44;;;;;;;27.40;24.60;;;;;;;5.10;55.25;98076.44;109189;1294;22215;-84
2023/03/18 07:29:12;;;;;;;21.10;18.70;;;;;;;5.24;55.31;98075.39;109095;1294;22210;-84
2023/03/18 07:31:40;;;;;;;22.40;20.00;;;;;;;5.37;55.29;98077.97;108860;1294;22221;-84
2023/03/18 07:34:08;;;;;;;19.40;17.30;;;;;;;5.51;55.08;98082.36;109145;1294;22899;-83
2023/03/18 07:36:37;;;;;;;19.00;16.80;;;;;;;5.62;54.57;98078.82;109160;1294;22194;-84
2023/03/18 07:39:06;;;;;;;18.90;16.90;;;;;;;5.74;54.45;98082.61;109171;1294;22181;-83
2023/03/18 07:41:34;;;;;;;18.70;16.60;;;;;;;5.88;54.37;98085.00;109147;1294;22248;-84
2023/03/18 07:44:06;;;;;;;20.10;15.30;;;;;;;6.03;54.14;98080.10;109145;1294;22654;-84
2023/03/18 07:46:34;;;;;;;19.50;16.10;;;;;;;6.17;54.41;98079.95;109143;1294;22210;-85
2023/03/18 07:49:02;;;;;;;20.80;17.20;;;;;;;6.34;54.14;98082.70;109162;1294;22166;-84
2023/03/18 07:51:30;;;;;;;19.50;15.00;;;;;;;6.46;53.26;98078.59;109127;1294;22109;-84
2023/03/18 07:53:58;;;;;;;17.80;15.60;;;;;;;6.57;53.49;98082.14;109159;1294;22229;-84
2023/03/18 07:56:26;;;;;;;17.90;15.60;;;;;;;6.66;53.40;98082.08;109164;1294;22615;-84
2023/03/18 07:58:54;;;;;;;16.90;14.80;;;;;;;6.77;53.45;98082.45;109148;1294;23023;-85
2023/03/18 08:01:22;;;;;;;16.00;14.30;;;;;;;6.89;53.17;98079.64;109149;1294;22857;-83
2023/03/18 08:03:50;;;;;;;14.20;12.70;;;;;;;6.94;51.95;98081.19;109109;1294;22931;-84
2023/03/18 08:06:19;;;;;;;17.20;13.50;;;;;;;7.01;52.57;98084.08;109299;1294;22219;-83
2023/03/18 08:08:48;;;;;;;14.20;12.70;;;;;;;7.10;52.32;98087.02;109694;1294;22263;-83
2023/03/18 08:11:16;;;;;;;15.00;13.40;;;;;;;7.21;51.85;98087.36;109690;1294;22214;-84
2023/03/18 08:13:44;;;;;;;19.40;13.20;;;;;;;7.36;52.06;98092.36;109706;1294;22231;-84
2023/03/18 08:16:12;;;;;;;15.80;13.40;;;;;;;7.47;51.87;98089.10;109230;1294;22120;-84
2023/03/18 08:18:40;;;;;;;15.00;13.50;;;;;;;7.58;50.96;98093.80;109154;1294;22223;-84
2023/03/18 08:21:09;;;;;;;16.10;13.80;;;;;;;7.66;50.95;98090.44;109179;1294;22132;-84
2023/03/18 08:23:37;;;;;;;16.90;12.90;;;;;;;7.81;51.12;98087.94;109174;1294;22154;-84
2023/03/18 08:26:06;;;;;;;14.00;12.00;;;;;;;7.97;50.13;98086.90;109171;1294;22211;-84
2023/03/18 08:28:34;;;;;;;13.90;11.50;;;;;;;8.14;50.57;98087.75;109163;1294;22178;-84
2023/03/18 08:31:03;;;;;;;20.40;13.60;;;;;;;8.32;50.27;98085.82;109219;1294;22170;-83
2023/03/18 08:33:31;;;;;;;16.40;13.10;;;;;;;8.45;49.85;98087.77;109230;1294;22223;-83
2023/03/18 08:36:11;;;;;;;13.70;12.00;;;;;;;8.50;49.69;98082.28;109159;1294;22243;-83
2023/03/18 08:38:39;;;;;;;14.50;12.30;;;;;;;8.59;49.23;98080.50;109072;1294;23087;-83
2023/03/18 08:41:08;;;;;;;15.70;12.20;;;;;;;8.70;49.40;98082.30;109103;1294;22205;-83
2023/03/18 08:43:36;;;;;;;13.90;11.20;;;;;;;8.86;48.75;98080.38;109096;1294;22185;-83
2023/03/18 08:46:06;;;;;;;14.00;11.20;;;;;;;8.96;48.70;98078.24;109104;1294;22240;-88
2023/03/18 08:48:34;;;;;;;14.60;12.00;;;;;;;9.03;48.47;98077.80;109086;1294;22229;-86
2023/03/18 08:51:04;;;;;;;14.80;11.60;;;;;;;9.14;47.39;98078.44;109155;1294;22240;-87
2023/03/18 08:53:40;;;;;;;16.10;10.50;;;;;;;9.22;46.66;98078.14;109259;1294;22225;-85
2023/03/18 08:56:08;;;;;;;15.40;10.30;;;;;;;9.30;46.04;98080.10;109448;1294;22229;-84
2023/03/18 08:58:39;;;;;;;11.50;9.80;;;;;;;9.33;44.61;98077.01;109231;1294;22218;-84
2023/03/18 09:01:07;;;;;;;12.60;10.00;;;;;;;9.31;43.62;98077.41;109128;1294;22234;-83
2023/03/18 09:03:38;;;;;;;12.90;10.50;;;;;;;9.30;44.38;98073.16;109142;1294;22699;-83
2023/03/18 09:06:10;;;;;;;15.20;11.30;;;;;;;9.43;45.37;98068.61;109215;1294;22232;-92
2023/03/18 09:08:38;;;;;;;11.30;8.80;;;;;;;9.61;45.56;98069.15;109490;1288;22813;-91
2023/03/18 09:11:07;;;;;;;10.30;8.20;;;;;;;9.83;44.78;98073.17;109464;1294;23067;-92
2023/03/18 09:13:35;;;;;;;11.30;9.50;;;;;;;10.21;44.58;98073.36;109564;1294;22139;-91
2023/03/18 09:16:11;;;;;;;11.30;9.40;;;;;;;10.69;44.59;98068.33;109230;1294;23035;-89
2023/03/18 09:18:39;;;;;;;11.30;9.80;;;;;;;10.91;42.67;98071.60;109143;1294;22225;-89
2023/03/18 09:21:13;;;;;;;13.40;10.90;;;;;;;10.96;43.40;98071.27;109136;1294;22335;-85
2023/03/18 09:23:42;;;;;;;12.10;10.80;;;;;;;10.96;41.85;98071.38;109135;1295;22210;-89
2023/03/18 09:26:11;;;;;;;12.80;10.30;;;;;;;10.88;42.99;98068.27;109161;1294;22247;-88
2023/03/18 09:28:40;;;;;;;11.60;9.90;;;;;;;10.95;42.40;98069.66;108852;1294;22354;-88
2023/03/18 09:31:08;;;;;;;11.80;10.20;;;;;;;11.00;42.48;98065.53;109146;1294;22169;-89
2023/03/18 09:33:36;;;;;;;11.90;9.50;;;;;;;11.07;42.67;98069.44;109147;1294;22193;-89
2023/03/18 09:36:04;;;;;;;17.20;9.70;;;;;;;11.20;42.78;98066.45;109216;1294;22160;-88
2023/03/18 09:38:32;;;;;;;11.40;10.00;;;;;;;11.36;41.81;98068.00;109773;1294;22264;-84
2023/03/18 09:41:20;;;;;;;12.00;9.20;;;;;;;11.50;41.90;98064.21;109760;1294;22243;-86
2023/03/18 09:43:58;;;;;;;10.80;9.40;;;;;;;11.64;41.56;98065.06;109742;1294;21994;-90
2023/03/18 09:46:32;;;;;;;10.80;9.10;;;;;;;11.73;41.06;98069.67;109737;1294;22229;-90
2023/03/18 09:49:09;;;;;;;;;;;;;;;11.83;41.39;98073.43;109564;1294;22293;-87
2023/03/18 09:51:54;;;;;;;11.60;8.70;;;;;;;11.86;39.99;98071.39;109142;1294;22264;-88
2023/03/18 09:54:40;;;;;;;11.60;8.40;;;;;;;11.85;39.52;98066.27;109128;1294;22196;-87
2023/03/18 09:57:18;;;;;;;9.90;8.00;;;;;;;11.99;40.04;98065.93;109115;1294;22889;-88
2023/03/18 09:59:53;;;;;;;12.40;9.10;;;;;;;12.09;38.53;98067.16;109075;1294;22224;-87
2023/03/18 10:02:39;;;;;;;11.60;9.20;;;;;;;12.06;38.44;98062.16;109137;1294;23004;-90
2023/03/18 10:05:15;;;;;;;14.50;11.00;;;;;;;12.12;39.43;98059.16;109146;1293;22284;-85
2023/03/18 10:07:51;;;;;;;13.20;8.80;;;;;;;12.30;38.24;98055.45;109096;1294;22241;-90
2023/03/18 10:10:26;;;;;;;11.10;9.10;;;;;;;12.47;37.84;98060.57;109256;1294;22272;-90
2023/03/18 10:13:14;;;;;;;11.20;8.70;;;;;;;12.62;38.09;98057.66;109140;1294;22277;-92
2023/03/18 10:15:46;;;;;;;14.10;9.00;;;;;;;12.71;37.20;98049.48;109332;1294;22196;-92
2023/03/18 10:18:26;;;;;;;9.50;8.00;;;;;;;12.80;36.66;98051.70;109600;1294;22351;-94
2023/03/18 10:24:20;;;;;;;9.70;7.60;;;;;;;13.14;36.06;98044.20;109036;1295;200345;-90
2023/03/18 10:26:53;;;;;;;11.50;8.70;;;;;;;13.28;37.10;98040.88;109099;1293;22295;-84
2023/03/18 10:29:24;;;;;;;12.00;8.50;;;;;;;13.51;36.77;98037.76;109031;1288;22207;-91
2023/03/18 10:32:12;;;;;;;11.80;8.20;;;;;;;13.78;35.45;98042.23;108998;1296;22126;-86
2023/03/18 10:35:01;;;;;;;10.90;8.00;;;;;;;13.82;35.06;98042.83;109064;1295;22211;-88
2023/03/18 10:37:39;;;;;;;9.50;7.60;;;;;;;13.87;35.55;98033.80;109087;1295;22157;-87
2023/03/18 10:40:15;;;;;;;12.70;9.20;;;;;;;13.85;34.82;98030.34;108988;1296;22350;-89
2023/03/18 10:42:45;;;;;;;10.90;8.30;;;;;;;13.84;35.42;98022.89;109084;1281;22188;-86
2023/03/18 10:45:22;;;;;;;10.70;8.10;;;;;;;13.94;34.51;98025.15;109017;1296;22179;-90
2023/03/18 10:48:04;;;;;;;9.20;7.30;;;;;;;13.97;32.56;98031.92;108896;1296;22209;-85
2023/03/18 10:50:38;;;;;;;10.20;7.40;;;;;;;13.98;33.43;98024.91;108924;1296;22576;-88
2023/03/18 10:53:18;;;;;;;11.10;7.90;;;;;;;14.08;32.79;98023.15;108909;1296;22030;-90
2023/03/18 10:56:05;;;;;;;11.40;6.90;;;;;;;14.15;32.39;98024.49;108901;1296;22990;-90
2023/03/18 10:58:33;;;;;;;11.30;7.50;;;;;;;14.17;31.85;98021.95;108900;1296;22236;-89
2023/03/18 11:01:01;;;;;;;10.00;7.20;;;;;;;14.20;31.94;98025.70;109018;1296;22214;-88
2023/03/18 11:03:34;;;;;;;7.90;6.00;;;;;;;14.31;31.52;98023.50;108971;1294;22310;-91
2023/03/18 11:06:06;;;;;;;9.40;7.40;;;;;;;14.47;29.79;98022.83;109010;1296;22210;-88
2023/03/18 11:08:36;;;;;;;9.60;7.50;;;;;;;14.51;29.63;98027.27;108926;1296;22229;-88
2023/03/18 11:11:32;;;;;;;11.30;7.80;;;;;;;14.51;29.92;98023.71;109023;1296;22217;-91
2023/03/18 11:14:03;;;;;;;9.90;7.00;;;;;;;14.46;28.98;98009.61;108918;1296;22354;-90
2023/03/18 11:16:49;;;;;;;10.90;7.60;;;;;;;14.50;28.55;98015.98;108964;1296;22231;-92
2023/03/18 11:19:28;;;;;;;8.80;7.50;;;;;;;14.41;28.23;98013.91;108943;1296;22209;-83
2023/03/18 11:22:16;;;;;;;10.20;7.50;;;;;;;14.39;30.14;98010.93;108900;1296;22127;-88
2023/03/18 11:24:45;;;;;;;9.50;8.20;;;;;;;14.66;30.15;98010.56;108908;1294;22930;-88
2023/03/18 11:27:13;;;;;;;9.80;7.40;;;;;;;14.81;29.28;98011.74;108918;1296;22328;-91
2023/03/18 11:29:45;;;;;;;9.80;7.70;;;;;;;14.89;28.82;98006.73;108883;1296;22175;-91
2023/03/18 11:32:28;;;;;;;11.20;7.50;;;;;;;14.94;28.57;98006.23;108902;1295;22160;-91
2023/03/18 11:34:59;;;;;;;14.00;8.20;;;;;;;15.06;28.89;98006.61;108990;1296;22124;-89
2023/03/18 11:37:39;;;;;;;9.20;7.20;;;;;;;15.23;28.83;98002.67;108854;1296;22153;-91
2023/03/18 11:40:13;;;;;;;8.20;6.50;;;;;;;15.41;27.83;97996.51;108990;1296;22298;-93